createdAt,value
2018-05-09T09:10:01.485Z,31.90
2018-05-09T09:57:05.805Z,25.60
2018-05-09T09:59:32.393Z,25.60
2018-05-09T10:01:58.964Z,25.50
2018-05-09T10:04:25.681Z,25.80
2018-05-09T10:06:52.184Z,26.20
2018-05-09T10:09:18.796Z,26.80
2018-05-09T10:11:46.113Z,28.10
2018-05-09T10:14:13.473Z,28.20
2018-05-09T10:16:40.091Z,28.30
2018-05-09T10:19:07.534Z,28.20
2018-05-09T10:21:34.129Z,28.20
2018-05-09T10:24:01.428Z,28.20
2018-05-09T10:26:28.113Z,28.90
2018-05-09T10:28:55.061Z,28.40
2018-05-09T10:31:22.483Z,27.70
2018-05-09T10:33:49.075Z,27.00
2018-05-09T10:36:16.373Z,27.60
2018-05-09T10:38:44.022Z,27.40
2018-05-09T10:41:11.395Z,27.40
2018-05-09T10:43:38.041Z,26.30
2018-05-09T10:46:04.666Z,27.00
2018-05-09T10:48:31.260Z,25.60
2018-05-09T10:50:57.848Z,25.70
2018-05-09T10:53:24.453Z,26.90
2018-05-09T10:55:51.040Z,25.50
2018-05-09T10:58:18.393Z,25.40
2018-05-09T11:00:45.713Z,25.60
2018-05-09T11:03:12.333Z,25.80
2018-05-09T11:05:38.903Z,25.70
2018-05-09T11:08:05.856Z,25.00
2018-05-09T11:10:32.818Z,25.60
2018-05-09T11:13:00.106Z,25.20
2018-05-09T11:15:27.068Z,26.20
2018-05-09T11:17:53.984Z,25.00
2018-05-09T11:20:20.873Z,24.80
2018-05-09T11:22:47.817Z,24.30
2018-05-09T11:25:14.740Z,24.40
2018-05-09T11:27:41.725Z,24.80
2018-05-09T11:30:08.652Z,24.70
2018-05-09T11:32:35.569Z,24.80
2018-05-09T11:35:03.695Z,24.40
2018-05-09T11:37:30.630Z,25.00
2018-05-09T11:39:58.273Z,24.40
2018-05-09T11:42:25.283Z,25.00
2018-05-09T11:44:52.996Z,25.00
2018-05-09T11:47:20.679Z,25.00
2018-05-09T11:49:47.634Z,25.40
2018-05-09T11:52:14.580Z,25.40
2018-05-09T11:54:41.585Z,25.60
2018-05-09T11:57:08.619Z,25.30
2018-05-09T11:59:35.550Z,25.30
2018-05-09T12:02:02.589Z,25.40
2018-05-09T12:04:29.825Z,25.70
2018-05-09T12:06:57.107Z,25.10
2018-05-09T12:09:24.068Z,25.50
2018-05-09T12:11:50.667Z,25.40
2018-05-09T12:14:17.257Z,24.70
2018-05-09T12:16:44.633Z,24.50
2018-05-09T12:19:11.210Z,24.40
2018-05-09T12:21:38.164Z,23.80
2018-05-09T12:24:04.755Z,23.70
2018-05-09T12:26:32.135Z,23.10
2018-05-09T12:28:58.745Z,22.80
2018-05-09T12:31:26.057Z,23.30
2018-05-09T12:33:52.812Z,23.20
2018-05-09T12:36:20.190Z,23.60
2018-05-09T12:38:46.748Z,23.80
2018-05-09T12:41:13.406Z,23.50
2018-05-09T12:43:39.974Z,23.50
2018-05-09T12:46:06.772Z,23.70
2018-05-09T12:48:33.381Z,24.40
2018-05-09T12:51:00.664Z,24.30
2018-05-09T12:53:27.929Z,24.30
2018-05-09T12:55:54.541Z,24.00
2018-05-09T12:58:21.905Z,23.70
2018-05-09T13:00:48.537Z,23.40
2018-05-09T13:03:15.167Z,23.40
2018-05-09T13:05:41.768Z,23.50
2018-05-09T13:08:09.130Z,23.80
2018-05-09T13:10:35.730Z,23.80
2018-05-09T13:13:02.285Z,23.30
2018-05-09T13:15:29.628Z,23.40
2018-05-09T13:17:56.198Z,23.20
2018-05-09T13:20:22.825Z,23.10
2018-05-09T13:22:49.406Z,22.90
2018-05-09T13:25:15.977Z,22.30
2018-05-09T13:27:43.330Z,22.20
2018-05-09T13:30:09.916Z,21.90
2018-05-09T13:32:36.480Z,21.10
2018-05-09T13:35:03.158Z,20.90
2018-05-09T13:37:29.744Z,21.40
2018-05-09T13:39:56.429Z,20.60
2018-05-09T13:42:22.966Z,21.30
2018-05-09T13:44:50.282Z,21.20
2018-05-09T13:47:16.856Z,20.80
2018-05-09T13:49:44.178Z,20.90
2018-05-09T13:52:11.097Z,20.70
2018-05-09T13:54:37.673Z,22.10
2018-05-09T13:57:04.296Z,21.50
2018-05-09T13:59:31.730Z,21.70
2018-05-09T14:01:58.337Z,22.20
2018-05-09T14:04:24.915Z,21.90
2018-05-09T14:06:52.524Z,22.40
2018-05-09T14:09:19.117Z,22.10
2018-05-09T14:11:46.456Z,22.30
2018-05-09T14:14:13.053Z,22.20
2018-05-09T14:16:39.624Z,23.00
2018-05-09T14:19:06.277Z,22.40
2018-05-09T14:21:32.872Z,22.50
2018-05-09T14:23:59.428Z,22.50
2018-05-09T14:26:26.029Z,22.30
2018-05-09T14:28:53.333Z,22.60
2018-05-09T14:31:20.259Z,22.40
2018-05-09T14:33:46.857Z,23.20
2018-05-09T14:36:14.168Z,22.70
2018-05-09T14:38:40.821Z,22.30
2018-05-09T14:41:07.531Z,23.40
2018-05-09T14:43:34.164Z,22.40
2018-05-09T14:46:00.785Z,22.80
2018-05-09T14:48:27.395Z,23.30
2018-05-09T14:50:54.057Z,23.50
2018-05-09T14:53:20.685Z,22.90
2018-05-09T14:55:47.323Z,22.60
2018-05-09T14:58:13.940Z,22.40
2018-05-09T15:00:40.540Z,22.30
2018-05-09T15:03:07.159Z,22.20
2018-05-09T15:05:33.800Z,22.00
2018-05-09T15:08:00.840Z,22.80
2018-05-09T15:10:27.483Z,23.00
2018-05-09T15:12:54.169Z,22.30
2018-05-09T15:15:20.852Z,22.30
2018-05-09T15:17:47.442Z,22.10
2018-05-09T15:20:14.053Z,22.40
2018-05-09T15:22:40.685Z,22.10
2018-05-09T15:25:07.324Z,22.20
2018-05-09T15:27:33.975Z,22.10
2018-05-09T15:30:00.554Z,21.80
2018-05-09T15:32:27.220Z,21.60
2018-05-09T15:34:53.878Z,21.60
2018-05-09T15:37:20.552Z,21.40
2018-05-09T15:39:47.208Z,21.00
2018-05-09T15:42:14.576Z,21.40
2018-05-09T15:44:41.245Z,21.70
2018-05-09T15:47:07.845Z,21.30
2018-05-09T15:49:34.485Z,21.30
2018-05-09T15:52:01.106Z,21.70
2018-05-09T15:54:27.719Z,22.10
2018-05-09T15:56:54.357Z,21.90
2018-05-09T15:59:20.985Z,21.50
2018-05-09T16:01:47.653Z,22.30
2018-05-09T16:04:14.243Z,22.10
2018-05-09T16:06:41.629Z,22.20
2018-05-09T16:09:08.263Z,22.10
2018-05-09T16:11:35.608Z,22.40
2018-05-09T16:14:02.262Z,22.10
2018-05-09T16:16:28.849Z,22.80
2018-05-09T16:18:55.752Z,22.20
2018-05-09T16:21:22.366Z,22.40
2018-05-09T16:23:49.012Z,22.30
2018-05-09T16:26:15.622Z,22.70
2018-05-09T16:28:42.992Z,22.60
2018-05-09T16:31:10.441Z,22.70
2018-05-09T16:33:37.069Z,22.80
2018-05-09T16:36:03.676Z,22.30
2018-05-09T16:38:30.261Z,22.10
2018-05-09T16:40:56.872Z,23.10
2018-05-09T16:43:24.228Z,21.90
2018-05-09T16:45:50.826Z,22.20
2018-05-09T16:48:17.449Z,22.30
2018-05-09T16:50:44.064Z,21.10
2018-05-09T16:53:10.760Z,21.30
2018-05-09T16:55:37.296Z,21.00
2018-05-09T16:58:03.981Z,20.90
2018-05-09T17:00:30.600Z,19.70
2018-05-09T17:02:57.113Z,20.70
2018-05-09T17:05:23.766Z,18.90
2018-05-09T17:07:50.382Z,21.20
2018-05-09T17:10:17.077Z,20.70
2018-05-09T17:12:43.689Z,21.40
2018-05-09T17:15:10.343Z,20.50
2018-05-09T17:17:37.187Z,20.90
2018-05-09T17:20:03.834Z,20.80
2018-05-09T17:22:32.564Z,19.10
2018-05-09T17:24:59.228Z,21.40
2018-05-09T17:27:25.791Z,20.80
2018-05-09T17:29:53.183Z,20.90
2018-05-09T17:32:19.870Z,21.20
2018-05-09T17:34:47.213Z,20.10
2018-05-09T17:37:14.529Z,19.70
2018-05-09T17:39:41.151Z,19.80
2018-05-09T17:42:07.778Z,19.20
2018-05-09T17:44:34.356Z,18.40
2018-05-09T17:47:00.926Z,18.20
2018-05-09T17:49:27.580Z,18.20
2018-05-09T17:51:54.949Z,18.30
2018-05-09T17:54:21.554Z,18.20
2018-05-09T17:56:48.152Z,18.40
2018-05-09T17:59:14.757Z,18.70
2018-05-09T18:01:41.408Z,18.10
2018-05-09T18:04:08.762Z,18.30
2018-05-09T18:06:36.084Z,18.30
2018-05-09T18:09:02.815Z,18.50
2018-05-09T18:11:29.433Z,17.10
2018-05-09T18:13:56.769Z,18.20
2018-05-09T18:16:23.416Z,18.50
2018-05-09T18:18:50.810Z,18.00
2018-05-09T18:21:17.500Z,17.90
2018-05-09T18:23:44.018Z,17.80
2018-05-09T18:26:11.429Z,17.70
2018-05-09T18:28:38.037Z,17.10
2018-05-09T18:31:05.021Z,18.90
2018-05-09T18:33:31.670Z,17.40
2018-05-09T18:35:58.282Z,17.90
2018-05-09T18:38:24.854Z,17.20
2018-05-09T18:40:51.521Z,18.20
2018-05-09T18:43:18.521Z,17.00
2018-05-09T18:45:45.132Z,17.90
2018-05-09T18:48:11.715Z,18.00
2018-05-09T18:50:38.323Z,15.60
2018-05-09T18:53:04.889Z,16.70
2018-05-09T18:55:31.492Z,16.90
2018-05-09T18:57:58.891Z,16.60
2018-05-09T19:00:25.898Z,16.60
2018-05-09T19:02:54.025Z,16.30
2018-05-09T19:05:21.309Z,16.30
2018-05-09T19:07:47.978Z,16.70
2018-05-09T19:10:14.584Z,16.10
2018-05-09T19:12:41.519Z,16.20
2018-05-09T19:15:08.215Z,16.40
2018-05-09T19:17:34.817Z,16.60
2018-05-09T19:20:01.429Z,16.70
2018-05-09T19:22:27.977Z,16.80
2018-05-09T19:24:54.584Z,16.20
2018-05-09T19:27:21.981Z,15.90
2018-05-09T19:29:48.596Z,15.70
2018-05-09T19:32:15.236Z,15.10
2018-05-09T19:34:41.790Z,15.10
2018-05-09T19:37:08.405Z,15.80
2018-05-09T19:39:35.044Z,14.80
2018-05-09T19:42:01.629Z,13.40
2018-05-09T19:44:28.197Z,15.90
2018-05-09T19:46:54.791Z,15.30
2018-05-09T19:49:21.778Z,15.90
2018-05-09T19:51:48.358Z,15.50
2018-05-09T19:54:15.686Z,15.80
2018-05-09T19:56:42.535Z,16.50
2018-05-09T19:59:09.901Z,16.10
2018-05-09T20:01:36.456Z,17.40
2018-05-09T20:04:03.829Z,15.70
2018-05-09T20:06:30.397Z,15.70
2018-05-09T20:08:57.726Z,15.30
2018-05-09T20:11:25.120Z,15.10
2018-05-09T20:13:51.819Z,15.50
2018-05-09T20:16:18.426Z,14.10
2018-05-09T20:18:45.718Z,15.00
2018-05-09T20:21:13.040Z,14.80
2018-05-09T20:23:40.076Z,15.10
2018-05-09T20:26:07.425Z,14.70
2018-05-09T20:28:34.380Z,15.00
2018-05-09T20:44:43.572Z,14.50
2018-05-09T20:47:10.859Z,14.70
2018-05-09T20:49:37.859Z,14.70
2018-05-09T20:52:05.990Z,14.50
2018-05-09T20:54:32.797Z,14.80
2018-05-09T20:57:00.121Z,14.70
2018-05-09T20:59:29.565Z,15.00
2018-05-09T21:01:56.854Z,14.50
2018-05-09T21:04:23.544Z,14.80
2018-05-09T21:06:51.636Z,14.50
2018-05-09T21:09:19.929Z,14.30
2018-05-09T21:12:05.034Z,14.20
2018-05-09T21:14:31.615Z,13.50
2018-05-09T21:16:58.728Z,14.70
2018-05-09T21:19:26.413Z,14.20
2018-05-09T21:21:53.703Z,14.10
2018-05-09T21:24:20.364Z,14.80
2018-05-09T21:26:47.704Z,13.90
2018-05-09T21:29:15.124Z,13.80
2018-05-09T21:31:42.479Z,13.80
2018-05-09T21:34:09.938Z,13.70
2018-05-09T21:36:36.837Z,13.90
2018-05-09T21:39:03.855Z,13.70
2018-05-09T21:41:30.863Z,13.80
2018-05-09T21:43:58.505Z,13.90
2018-05-09T21:46:26.872Z,13.60
2018-05-09T21:48:53.783Z,13.70
2018-05-09T21:51:21.088Z,13.30
2018-05-09T21:53:48.695Z,13.40
2018-05-09T21:56:16.025Z,13.20
2018-05-09T21:58:43.315Z,13.30
2018-05-09T22:01:10.709Z,13.20
2018-05-09T22:03:38.917Z,13.10
2018-05-09T22:06:06.297Z,13.10
2018-05-09T22:08:33.673Z,13.00
2018-05-09T22:11:00.806Z,13.40
2018-05-09T22:13:29.452Z,13.20
2018-05-09T22:15:56.826Z,13.00
2018-05-09T22:18:24.359Z,13.00
2018-05-09T22:20:51.748Z,12.90
2018-05-09T22:23:19.090Z,12.90
2018-05-09T22:25:47.249Z,12.90
2018-05-09T22:28:14.560Z,12.90
2018-05-09T22:30:42.900Z,12.90
2018-05-09T22:33:10.179Z,12.80
2018-05-09T22:35:37.197Z,13.00
2018-05-09T22:38:04.176Z,13.10
2018-05-09T22:40:31.124Z,13.40
2018-05-09T22:42:58.024Z,13.20
2018-05-09T22:45:24.986Z,12.90
2018-05-09T22:47:53.743Z,12.70
2018-05-09T22:50:21.480Z,12.90
2018-05-09T22:52:48.452Z,12.80
2018-05-09T22:55:15.542Z,12.80
2018-05-09T22:57:43.220Z,12.90
2018-05-09T23:00:11.771Z,13.00
2018-05-09T23:02:38.599Z,13.10
2018-05-09T23:05:06.375Z,12.90
2018-05-09T23:07:33.475Z,13.10
2018-05-09T23:10:00.452Z,12.90
2018-05-09T23:12:27.998Z,12.70
2018-05-09T23:14:54.988Z,12.60
2018-05-09T23:17:21.570Z,11.70
2018-05-09T23:19:51.905Z,11.80
2018-05-09T23:22:18.509Z,12.30
2018-05-09T23:24:45.896Z,12.20
2018-05-09T23:27:12.893Z,12.40
2018-05-09T23:29:42.356Z,12.00
2018-05-09T23:32:09.320Z,12.10
2018-05-09T23:34:36.267Z,12.10
2018-05-09T23:37:04.035Z,11.80
2018-05-09T23:39:31.782Z,11.80
2018-05-09T23:42:00.152Z,12.00
2018-05-09T23:44:27.133Z,12.20
2018-05-09T23:46:55.067Z,12.40
2018-05-09T23:49:22.630Z,12.20
2018-05-09T23:51:50.460Z,12.40
2018-05-09T23:54:18.370Z,12.40
2018-05-09T23:56:46.061Z,12.50
2018-05-09T23:59:14.766Z,12.00
